sensor_id;sensor_type;location;lat;lon;timestamp;pressure;altitude;pressure_sealevel;temperature;humidity
16821;BME280;8527;49.740;6.604;2023-06-14T00:03:39;99334.22;;;17.68;55.14
16821;BME280;8527;49.740;6.604;2023-06-14T00:08:38;99334.50;;;17.60;54.72
16821;BME280;8527;49.740;6.604;2023-06-14T00:13:42;99331.34;;;17.33;55.54
16821;BME280;8527;49.740;6.604;2023-06-14T00:18:57;99327.81;;;17.13;56.89
16821;BME280;8527;49.740;6.604;2023-06-14T00:24:01;99327.50;;;17.03;56.79
16821;BME280;8527;49.740;6.604;2023-06-14T00:29:02;99333.03;;;17.08;57.48
16821;BME280;8527;49.740;6.604;2023-06-14T00:34:07;99339.53;;;16.94;57.28
16821;BME280;8527;49.740;6.604;2023-06-14T00:39:12;99343.25;;;16.67;57.33
16821;BME280;8527;49.740;6.604;2023-06-14T00:44:16;99343.03;;;16.69;58.83
16821;BME280;8527;49.740;6.604;2023-06-14T00:49:17;99340.47;;;16.55;58.98
16821;BME280;8527;49.740;6.604;2023-06-14T00:54:22;99345.66;;;16.50;58.71
16821;BME280;8527;49.740;6.604;2023-06-14T00:59:20;99354.91;;;16.54;58.85
16821;BME280;8527;49.740;6.604;2023-06-14T01:04:21;99355.75;;;16.48;58.94
16821;BME280;8527;49.740;6.604;2023-06-14T01:09:31;99359.56;;;16.34;59.57
16821;BME280;8527;49.740;6.604;2023-06-14T01:14:36;99360.53;;;16.14;59.88
16821;BME280;8527;49.740;6.604;2023-06-14T01:19:38;99358.44;;;16.16;60.62
16821;BME280;8527;49.740;6.604;2023-06-14T01:24:47;99368.84;;;15.99;61.35
16821;BME280;8527;49.740;6.604;2023-06-14T01:29:55;99363.94;;;15.82;61.18
16821;BME280;8527;49.740;6.604;2023-06-14T01:34:58;99365.16;;;15.86;61.41
16821;BME280;8527;49.740;6.604;2023-06-14T01:40:02;99362.59;;;16.05;60.47
16821;BME280;8527;49.740;6.604;2023-06-14T01:45:15;99364.13;;;15.94;61.30
16821;BME280;8527;49.740;6.604;2023-06-14T01:50:14;99365.88;;;15.61;60.79
16821;BME280;8527;49.740;6.604;2023-06-14T01:55:16;99375.97;;;15.53;61.79
16821;BME280;8527;49.740;6.604;2023-06-14T02:00:17;99378.66;;;15.53;61.56
16821;BME280;8527;49.740;6.604;2023-06-14T02:05:17;99373.75;;;15.50;62.06
16821;BME280;8527;49.740;6.604;2023-06-14T02:10:28;99374.56;;;15.43;61.49
16821;BME280;8527;49.740;6.604;2023-06-14T02:15:32;99377.03;;;15.52;61.59
16821;BME280;8527;49.740;6.604;2023-06-14T02:20:32;99376.69;;;15.21;62.70
16821;BME280;8527;49.740;6.604;2023-06-14T02:25:33;99383.88;;;15.14;62.93
16821;BME280;8527;49.740;6.604;2023-06-14T02:30:46;99374.63;;;15.23;63.96
16821;BME280;8527;49.740;6.604;2023-06-14T02:35:45;99380.59;;;15.12;62.84
16821;BME280;8527;49.740;6.604;2023-06-14T02:40:46;99379.97;;;15.23;62.53
16821;BME280;8527;49.740;6.604;2023-06-14T02:45:50;99386.34;;;15.15;62.95
16821;BME280;8527;49.740;6.604;2023-06-14T02:50:52;99381.03;;;15.02;63.74
16821;BME280;8527;49.740;6.604;2023-06-14T02:55:57;99388.22;;;14.88;63.97
16821;BME280;8527;49.740;6.604;2023-06-14T03:00:59;99390.47;;;14.98;63.93
16821;BME280;8527;49.740;6.604;2023-06-14T03:05:58;99392.09;;;14.79;65.72
16821;BME280;8527;49.740;6.604;2023-06-14T03:11:05;99395.81;;;14.84;65.86
16821;BME280;8527;49.740;6.604;2023-06-14T03:16:15;99394.56;;;14.80;63.50
16821;BME280;8527;49.740;6.604;2023-06-14T03:21:29;99397.63;;;14.70;64.81
16821;BME280;8527;49.740;6.604;2023-06-14T03:26:36;99408.09;;;14.65;66.57
16821;BME280;8527;49.740;6.604;2023-06-14T03:32:02;99403.97;;;14.49;66.91
16821;BME280;8527;49.740;6.604;2023-06-14T03:37:07;99405.19;;;14.46;65.72
16821;BME280;8527;49.740;6.604;2023-06-14T03:42:09;99414.22;;;14.45;66.96
16821;BME280;8527;49.740;6.604;2023-06-14T03:47:10;99414.66;;;14.49;67.26
16821;BME280;8527;49.740;6.604;2023-06-14T03:52:08;99415.47;;;14.56;66.82
16821;BME280;8527;49.740;6.604;2023-06-14T03:57:10;99408.72;;;14.54;66.76
16821;BME280;8527;49.740;6.604;2023-06-14T04:02:08;99418.81;;;14.72;66.13
16821;BME280;8527;49.740;6.604;2023-06-14T04:07:11;99422.25;;;14.52;66.66
16821;BME280;8527;49.740;6.604;2023-06-14T04:12:22;99428.63;;;14.58;66.15
16821;BME280;8527;49.740;6.604;2023-06-14T04:17:20;99425.59;;;14.74;67.40
16821;BME280;8527;49.740;6.604;2023-06-14T04:22:21;99430.94;;;14.81;68.33
16821;BME280;8527;49.740;6.604;2023-06-14T04:27:23;99436.09;;;14.96;67.91
16821;BME280;8527;49.740;6.604;2023-06-14T04:32:23;99444.53;;;15.00;68.60
16821;BME280;8527;49.740;6.604;2023-06-14T04:37:22;99455.81;;;15.36;67.70
16821;BME280;8527;49.740;6.604;2023-06-14T04:42:28;99452.06;;;15.50;67.96
16821;BME280;8527;49.740;6.604;2023-06-14T04:47:28;99455.03;;;16.08;65.75
16821;BME280;8527;49.740;6.604;2023-06-14T04:52:27;99465.22;;;16.38;64.03
16821;BME280;8527;49.740;6.604;2023-06-14T04:57:30;99463.88;;;16.54;64.81
16821;BME280;8527;49.740;6.604;2023-06-14T05:02:29;99468.88;;;16.76;64.39
16821;BME280;8527;49.740;6.604;2023-06-14T05:07:27;99473.22;;;17.09;63.26
16821;BME280;8527;49.740;6.604;2023-06-14T05:12:31;99473.16;;;17.41;62.34
16821;BME280;8527;49.740;6.604;2023-06-14T05:17:29;99468.88;;;17.96;60.81
16821;BME280;8527;49.740;6.604;2023-06-14T05:22:28;99471.09;;;18.36;59.63
16821;BME280;8527;49.740;6.604;2023-06-14T05:27:26;99468.75;;;18.70;57.37
16821;BME280;8527;49.740;6.604;2023-06-14T05:32:27;99476.09;;;18.33;56.81
16821;BME280;8527;49.740;6.604;2023-06-14T05:37:31;99474.47;;;18.74;57.12
16821;BME280;8527;49.740;6.604;2023-06-14T05:42:47;99479.25;;;19.15;55.69
16821;BME280;8527;49.740;6.604;2023-06-14T05:47:49;99479.75;;;18.81;55.98
16821;BME280;8527;49.740;6.604;2023-06-14T05:52:49;99487.50;;;18.77;55.80
16821;BME280;8527;49.740;6.604;2023-06-14T05:57:48;99496.38;;;19.44;54.66
16821;BME280;8527;49.740;6.604;2023-06-14T06:02:49;99496.94;;;19.46;54.60
16821;BME280;8527;49.740;6.604;2023-06-14T06:07:48;99501.53;;;19.70;53.41
16821;BME280;8527;49.740;6.604;2023-06-14T06:12:46;99496.59;;;20.02;52.35
16821;BME280;8527;49.740;6.604;2023-06-14T06:17:50;99500.22;;;19.84;52.07
16821;BME280;8527;49.740;6.604;2023-06-14T06:22:56;99496.16;;;20.63;50.81
16821;BME280;8527;49.740;6.604;2023-06-14T06:27:55;99496.66;;;20.89;49.60
16821;BME280;8527;49.740;6.604;2023-06-14T06:32:57;99505.91;;;20.52;49.97
16821;BME280;8527;49.740;6.604;2023-06-14T06:37:58;99510.38;;;20.18;51.25
16821;BME280;8527;49.740;6.604;2023-06-14T06:42:57;99503.19;;;20.35;50.97
16821;BME280;8527;49.740;6.604;2023-06-14T06:47:58;99512.63;;;20.50;50.30
16821;BME280;8527;49.740;6.604;2023-06-14T06:52:56;99507.31;;;20.55;50.17
16821;BME280;8527;49.740;6.604;2023-06-14T06:57:55;99513.25;;;20.69;49.50
16821;BME280;8527;49.740;6.604;2023-06-14T07:02:57;99528.22;;;20.77;49.71
16821;BME280;8527;49.740;6.604;2023-06-14T07:07:56;99533.34;;;20.90;49.00
16821;BME280;8527;49.740;6.604;2023-06-14T07:12:55;99532.94;;;21.33;48.22
16821;BME280;8527;49.740;6.604;2023-06-14T07:18:02;99524.63;;;21.34;48.05
16821;BME280;8527;49.740;6.604;2023-06-14T07:23:02;99523.88;;;21.22;48.59
16821;BME280;8527;49.740;6.604;2023-06-14T07:28:04;99517.09;;;21.71;47.78
16821;BME280;8527;49.740;6.604;2023-06-14T07:33:05;99522.25;;;22.39;46.45
16821;BME280;8527;49.740;6.604;2023-06-14T07:38:08;99528.69;;;22.55;46.13
16821;BME280;8527;49.740;6.604;2023-06-14T07:43:10;99515.50;;;22.59;45.82
16821;BME280;8527;49.740;6.604;2023-06-14T07:48:11;99525.38;;;22.75;44.93
16821;BME280;8527;49.740;6.604;2023-06-14T07:53:10;99521.19;;;22.62;45.08
16821;BME280;8527;49.740;6.604;2023-06-14T07:58:11;99544.53;;;22.46;45.21
16821;BME280;8527;49.740;6.604;2023-06-14T08:03:19;99529.41;;;23.00;45.25
16821;BME280;8527;49.740;6.604;2023-06-14T08:08:20;99533.03;;;23.44;44.56
16821;BME280;8527;49.740;6.604;2023-06-14T08:13:22;99526.13;;;24.12;43.15
16821;BME280;8527;49.740;6.604;2023-06-14T08:18:28;99523.31;;;23.96;43.82
16821;BME280;8527;49.740;6.604;2023-06-14T08:23:36;99519.91;;;24.16;43.15
16821;BME280;8527;49.740;6.604;2023-06-14T08:28:47;99520.03;;;24.48;43.17
16821;BME280;8527;49.740;6.604;2023-06-14T08:33:50;99521.59;;;24.33;42.88
16821;BME280;8527;49.740;6.604;2023-06-14T08:38:54;99523.09;;;25.39;43.08
16821;BME280;8527;49.740;6.604;2023-06-14T08:43:59;99530.44;;;25.08;41.51
16821;BME280;8527;49.740;6.604;2023-06-14T08:49:03;99526.38;;;25.36;41.06
16821;BME280;8527;49.740;6.604;2023-06-14T08:54:02;99533.59;;;26.03;41.15
16821;BME280;8527;49.740;6.604;2023-06-14T08:59:04;99525.03;;;25.28;41.35
16821;BME280;8527;49.740;6.604;2023-06-14T09:04:06;99530.31;;;24.35;42.18
16821;BME280;8527;49.740;6.604;2023-06-14T09:09:05;99524.47;;;25.06;42.23
16821;BME280;8527;49.740;6.604;2023-06-14T09:14:06;99521.50;;;25.07;41.67
16821;BME280;8527;49.740;6.604;2023-06-14T09:19:20;99539.94;;;24.79;41.80
16821;BME280;8527;49.740;6.604;2023-06-14T09:24:19;99533.19;;;25.54;41.15
16821;BME280;8527;49.740;6.604;2023-06-14T09:29:18;99540.38;;;26.21;39.77
16821;BME280;8527;49.740;6.604;2023-06-14T09:34:22;99547.00;;;25.48;40.78
16821;BME280;8527;49.740;6.604;2023-06-14T09:39:23;99554.63;;;25.72;40.23
16821;BME280;8527;49.740;6.604;2023-06-14T09:44:22;99552.81;;;26.88;39.10
16821;BME280;8527;49.740;6.604;2023-06-14T09:49:29;99543.19;;;27.01;37.52
16821;BME280;8527;49.740;6.604;2023-06-14T09:54:28;99547.44;;;26.17;37.31
16821;BME280;8527;49.740;6.604;2023-06-14T09:59:31;99550.78;;;26.59;38.17
16821;BME280;8527;49.740;6.604;2023-06-14T10:04:34;99556.22;;;27.04;35.81
16821;BME280;8527;49.740;6.604;2023-06-14T10:09:33;99549.34;;;26.11;35.95
16821;BME280;8527;49.740;6.604;2023-06-14T10:14:35;99542.97;;;27.32;35.66
16821;BME280;8527;49.740;6.604;2023-06-14T10:19:42;99543.00;;;26.42;36.77
16821;BME280;8527;49.740;6.604;2023-06-14T10:24:45;99541.97;;;26.78;35.75
16821;BME280;8527;49.740;6.604;2023-06-14T10:30:02;99539.75;;;26.35;35.17
16821;BME280;8527;49.740;6.604;2023-06-14T10:35:07;99545.19;;;26.85;35.04
16821;BME280;8527;49.740;6.604;2023-06-14T10:40:07;99540.31;;;27.51;35.08
16821;BME280;8527;49.740;6.604;2023-06-14T10:45:21;99541.72;;;26.74;33.16
16821;BME280;8527;49.740;6.604;2023-06-14T10:50:27;99540.84;;;26.29;34.47
16821;BME280;8527;49.740;6.604;2023-06-14T10:55:35;99540.72;;;26.60;34.08
16821;BME280;8527;49.740;6.604;2023-06-14T11:00:37;99539.00;;;26.74;34.57
16821;BME280;8527;49.740;6.604;2023-06-14T11:05:48;99541.34;;;26.46;34.28
16821;BME280;8527;49.740;6.604;2023-06-14T11:10:59;99534.53;;;26.49;34.87
16821;BME280;8527;49.740;6.604;2023-06-14T11:16:01;99534.63;;;26.28;33.96
16821;BME280;8527;49.740;6.604;2023-06-14T11:21:05;99546.41;;;25.97;34.22
16821;BME280;8527;49.740;6.604;2023-06-14T11:26:04;99532.91;;;25.66;34.74
16821;BME280;8527;49.740;6.604;2023-06-14T11:31:03;99533.38;;;25.94;33.94
16821;BME280;8527;49.740;6.604;2023-06-14T11:36:08;99538.78;;;26.60;34.77
16821;BME280;8527;49.740;6.604;2023-06-14T11:41:06;99532.28;;;26.61;33.98
16821;BME280;8527;49.740;6.604;2023-06-14T11:46:12;99535.88;;;25.70;34.74
16821;BME280;8527;49.740;6.604;2023-06-14T11:51:14;99528.72;;;26.00;34.13
16821;BME280;8527;49.740;6.604;2023-06-14T11:56:13;99524.75;;;25.66;33.89
16821;BME280;8527;49.740;6.604;2023-06-14T12:01:14;99525.84;;;26.42;33.58
16821;BME280;8527;49.740;6.604;2023-06-14T12:06:30;99523.63;;;25.73;34.40
16821;BME280;8527;49.740;6.604;2023-06-14T12:11:35;99524.72;;;25.82;34.43
16821;BME280;8527;49.740;6.604;2023-06-14T12:16:36;99532.25;;;26.01;33.50
16821;BME280;8527;49.740;6.604;2023-06-14T12:21:40;99518.66;;;26.01;33.33
16821;BME280;8527;49.740;6.604;2023-06-14T12:26:45;99524.31;;;26.25;33.21
16821;BME280;8527;49.740;6.604;2023-06-14T12:31:44;99509.72;;;25.84;34.93
16821;BME280;8527;49.740;6.604;2023-06-14T12:36:45;99524.84;;;26.17;34.35
16821;BME280;8527;49.740;6.604;2023-06-14T12:41:43;99522.97;;;26.22;33.88
16821;BME280;8527;49.740;6.604;2023-06-14T12:46:44;99513.66;;;26.29;33.60
16821;BME280;8527;49.740;6.604;2023-06-14T12:51:45;99518.66;;;26.06;33.12
16821;BME280;8527;49.740;6.604;2023-06-14T12:56:45;99515.38;;;26.09;33.50
16821;BME280;8527;49.740;6.604;2023-06-14T13:01:46;99533.34;;;25.99;34.25
16821;BME280;8527;49.740;6.604;2023-06-14T13:06:48;99517.47;;;26.33;33.50
16821;BME280;8527;49.740;6.604;2023-06-14T13:11:47;99523.34;;;25.79;33.20
16821;BME280;8527;49.740;6.604;2023-06-14T13:16:48;99527.03;;;26.20;33.81
16821;BME280;8527;49.740;6.604;2023-06-14T13:21:50;99518.25;;;26.38;34.72
16821;BME280;8527;49.740;6.604;2023-06-14T13:26:51;99518.47;;;26.47;33.39
16821;BME280;8527;49.740;6.604;2023-06-14T13:31:50;99531.41;;;26.05;33.49
16821;BME280;8527;49.740;6.604;2023-06-14T13:36:55;99531.19;;;25.91;33.86
16821;BME280;8527;49.740;6.604;2023-06-14T13:41:54;99523.66;;;25.67;32.93
16821;BME280;8527;49.740;6.604;2023-06-14T13:46:55;99524.66;;;25.97;32.38
16821;BME280;8527;49.740;6.604;2023-06-14T13:51:57;99532.50;;;26.04;32.51
16821;BME280;8527;49.740;6.604;2023-06-14T13:56:55;99521.41;;;25.95;32.78
16821;BME280;8527;49.740;6.604;2023-06-14T14:01:54;99514.63;;;25.88;32.91
16821;BME280;8527;49.740;6.604;2023-06-14T14:06:52;99519.22;;;25.97;31.86
16821;BME280;8527;49.740;6.604;2023-06-14T14:12:03;99504.72;;;26.28;31.34
16821;BME280;8527;49.740;6.604;2023-06-14T14:17:06;99511.72;;;25.58;32.41
16821;BME280;8527;49.740;6.604;2023-06-14T14:22:05;99517.63;;;25.86;31.05
16821;BME280;8527;49.740;6.604;2023-06-14T14:27:10;99520.63;;;25.79;32.42
16821;BME280;8527;49.740;6.604;2023-06-14T14:32:09;99515.50;;;25.62;32.98
16821;BME280;8527;49.740;6.604;2023-06-14T14:37:09;99519.84;;;25.68;32.81
16821;BME280;8527;49.740;6.604;2023-06-14T14:42:13;99515.75;;;25.76;31.98
16821;BME280;8527;49.740;6.604;2023-06-14T14:47:11;99514.41;;;25.63;31.91
16821;BME280;8527;49.740;6.604;2023-06-14T14:52:10;99513.47;;;26.04;32.63
16821;BME280;8527;49.740;6.604;2023-06-14T14:57:14;99526.13;;;25.53;33.45
16821;BME280;8527;49.740;6.604;2023-06-14T15:02:12;99517.94;;;25.69;33.25
16821;BME280;8527;49.740;6.604;2023-06-14T15:07:11;99530.19;;;25.66;34.05
16821;BME280;8527;49.740;6.604;2023-06-14T15:12:16;99521.50;;;25.12;34.89
16821;BME280;8527;49.740;6.604;2023-06-14T15:17:18;99528.28;;;25.25;35.37
16821;BME280;8527;49.740;6.604;2023-06-14T15:22:20;99520.69;;;25.17;35.09
16821;BME280;8527;49.740;6.604;2023-06-14T15:27:21;99519.03;;;25.42;35.84
16821;BME280;8527;49.740;6.604;2023-06-14T15:32:20;99526.66;;;25.19;34.88
16821;BME280;8527;49.740;6.604;2023-06-14T15:37:20;99513.63;;;24.95;36.50
16821;BME280;8527;49.740;6.604;2023-06-14T15:42:22;99522.28;;;25.34;35.95
16821;BME280;8527;49.740;6.604;2023-06-14T15:47:54;99512.81;;;25.21;35.76
16821;BME280;8527;49.740;6.604;2023-06-14T15:52:52;99514.44;;;25.06;37.49
16821;BME280;8527;49.740;6.604;2023-06-14T15:57:53;99503.06;;;25.04;36.79
16821;BME280;8527;49.740;6.604;2023-06-14T16:02:51;99504.94;;;25.24;36.18
16821;BME280;8527;49.740;6.604;2023-06-14T16:07:50;99503.59;;;25.11;36.91
16821;BME280;8527;49.740;6.604;2023-06-14T16:12:54;99511.19;;;24.78;36.00
16821;BME280;8527;49.740;6.604;2023-06-14T16:17:53;99496.47;;;24.74;37.01
16821;BME280;8527;49.740;6.604;2023-06-14T16:22:52;99493.75;;;24.64;36.22
16821;BME280;8527;49.740;6.604;2023-06-14T16:27:50;99516.78;;;24.56;36.87
16821;BME280;8527;49.740;6.604;2023-06-14T16:32:51;99511.09;;;24.63;37.19
16821;BME280;8527;49.740;6.604;2023-06-14T16:37:49;99522.25;;;24.71;36.93
16821;BME280;8527;49.740;6.604;2023-06-14T16:42:49;99525.50;;;24.63;37.79
16821;BME280;8527;49.740;6.604;2023-06-14T16:47:47;99526.63;;;24.83;37.25
16821;BME280;8527;49.740;6.604;2023-06-14T16:52:55;99532.28;;;24.66;37.67
16821;BME280;8527;49.740;6.604;2023-06-14T16:58:00;99542.84;;;24.62;36.65
16821;BME280;8527;49.740;6.604;2023-06-14T17:03:04;99528.44;;;24.51;38.31
16821;BME280;8527;49.740;6.604;2023-06-14T17:08:05;99526.28;;;24.58;37.44
16821;BME280;8527;49.740;6.604;2023-06-14T17:13:04;99537.31;;;24.26;38.71
16821;BME280;8527;49.740;6.604;2023-06-14T17:18:06;99532.44;;;24.23;39.76
16821;BME280;8527;49.740;6.604;2023-06-14T17:23:06;99547.47;;;23.98;40.28
16821;BME280;8527;49.740;6.604;2023-06-14T17:28:06;99549.88;;;23.94;40.23
16821;BME280;8527;49.740;6.604;2023-06-14T17:33:10;99547.25;;;24.10;40.14
16821;BME280;8527;49.740;6.604;2023-06-14T17:38:12;99554.16;;;23.85;40.35
16821;BME280;8527;49.740;6.604;2023-06-14T17:43:13;99561.41;;;23.74;40.56
16821;BME280;8527;49.740;6.604;2023-06-14T17:48:15;99569.47;;;23.69;40.88
16821;BME280;8527;49.740;6.604;2023-06-14T17:53:16;99573.00;;;23.64;40.66
16821;BME280;8527;49.740;6.604;2023-06-14T17:58:16;99569.72;;;23.62;40.36
16821;BME280;8527;49.740;6.604;2023-06-14T18:03:15;99573.78;;;23.59;40.60
16821;BME280;8527;49.740;6.604;2023-06-14T18:08:16;99581.03;;;23.54;40.68
16821;BME280;8527;49.740;6.604;2023-06-14T18:13:14;99590.72;;;23.44;40.89
16821;BME280;8527;49.740;6.604;2023-06-14T18:18:19;99588.75;;;23.35;40.73
16821;BME280;8527;49.740;6.604;2023-06-14T18:23:24;99597.06;;;23.28;40.67
16821;BME280;8527;49.740;6.604;2023-06-14T18:28:22;99600.22;;;23.19;40.83
16821;BME280;8527;49.740;6.604;2023-06-14T18:33:23;99598.94;;;23.27;41.95
16821;BME280;8527;49.740;6.604;2023-06-14T18:38:27;99609.19;;;23.25;41.88
16821;BME280;8527;49.740;6.604;2023-06-14T18:43:26;99621.44;;;23.05;42.14
16821;BME280;8527;49.740;6.604;2023-06-14T18:48:27;99618.72;;;23.05;41.98
16821;BME280;8527;49.740;6.604;2023-06-14T18:53:28;99626.78;;;22.73;42.39
16821;BME280;8527;49.740;6.604;2023-06-14T18:58:26;99624.81;;;22.68;42.99
16821;BME280;8527;49.740;6.604;2023-06-14T19:03:25;99624.16;;;22.78;42.57
16821;BME280;8527;49.740;6.604;2023-06-14T19:08:23;99626.59;;;22.57;43.57
16821;BME280;8527;49.740;6.604;2023-06-14T19:13:24;99630.13;;;22.58;43.61
16821;BME280;8527;49.740;6.604;2023-06-14T19:18:24;99643.28;;;22.32;44.00
16821;BME280;8527;49.740;6.604;2023-06-14T19:23:23;99648.56;;;22.44;44.04
16821;BME280;8527;49.740;6.604;2023-06-14T19:28:24;99644.03;;;22.27;44.20
16821;BME280;8527;49.740;6.604;2023-06-14T19:33:23;99646.75;;;22.10;45.71
16821;BME280;8527;49.740;6.604;2023-06-14T19:38:22;99654.75;;;22.05;46.58
16821;BME280;8527;49.740;6.604;2023-06-14T19:43:20;99655.56;;;22.23;45.92
16821;BME280;8527;49.740;6.604;2023-06-14T19:48:24;99666.25;;;21.95;46.46
16821;BME280;8527;49.740;6.604;2023-06-14T19:53:23;99671.94;;;21.64;47.60
16821;BME280;8527;49.740;6.604;2023-06-14T19:58:24;99675.41;;;21.77;47.10
16821;BME280;8527;49.740;6.604;2023-06-14T20:03:27;99676.25;;;21.65;47.69
16821;BME280;8527;49.740;6.604;2023-06-14T20:08:29;99684.81;;;21.45;49.04
16821;BME280;8527;49.740;6.604;2023-06-14T20:13:28;99693.78;;;21.34;49.28
16821;BME280;8527;49.740;6.604;2023-06-14T20:18:29;99700.25;;;21.33;48.57
16821;BME280;8527;49.740;6.604;2023-06-14T20:23:28;99704.22;;;21.13;48.39
16821;BME280;8527;49.740;6.604;2023-06-14T20:28:31;99706.81;;;21.08;49.64
16821;BME280;8527;49.740;6.604;2023-06-14T20:33:32;99717.84;;;21.06;50.08
16821;BME280;8527;49.740;6.604;2023-06-14T20:38:34;99715.28;;;21.00;50.14
16821;BME280;8527;49.740;6.604;2023-06-14T20:43:34;99717.78;;;20.89;50.01
16821;BME280;8527;49.740;6.604;2023-06-14T20:48:37;99726.44;;;20.67;51.14
16821;BME280;8527;49.740;6.604;2023-06-14T20:53:35;99718.03;;;20.52;51.39
16821;BME280;8527;49.740;6.604;2023-06-14T20:58:36;99727.75;;;20.53;51.00
16821;BME280;8527;49.740;6.604;2023-06-14T21:03:37;99727.53;;;20.31;51.53
16821;BME280;8527;49.740;6.604;2023-06-14T21:08:36;99728.56;;;20.30;51.64
16821;BME280;8527;49.740;6.604;2023-06-14T21:13:37;99738.75;;;20.16;51.58
16821;BME280;8527;49.740;6.604;2023-06-14T21:18:38;99738.28;;;20.07;51.97
16821;BME280;8527;49.740;6.604;2023-06-14T21:23:39;99748.00;;;20.08;51.51
16821;BME280;8527;49.740;6.604;2023-06-14T21:28:41;99744.06;;;19.92;52.68
16821;BME280;8527;49.740;6.604;2023-06-14T21:33:43;99749.28;;;19.75;52.49
16821;BME280;8527;49.740;6.604;2023-06-14T21:38:45;99747.03;;;19.60;52.05
16821;BME280;8527;49.740;6.604;2023-06-14T21:43:43;99756.28;;;19.64;53.94
16821;BME280;8527;49.740;6.604;2023-06-14T21:48:44;99761.56;;;19.40;53.54
16821;BME280;8527;49.740;6.604;2023-06-14T21:53:43;99764.31;;;19.33;54.14
16821;BME280;8527;49.740;6.604;2023-06-14T21:58:44;99759.69;;;19.22;53.52
16821;BME280;8527;49.740;6.604;2023-06-14T22:03:51;99758.59;;;19.11;53.57
16821;BME280;8527;49.740;6.604;2023-06-14T22:08:49;99768.13;;;18.88;56.02
16821;BME280;8527;49.740;6.604;2023-06-14T22:13:49;99766.09;;;18.83;55.50
16821;BME280;8527;49.740;6.604;2023-06-14T22:18:50;99765.63;;;18.68;56.02
16821;BME280;8527;49.740;6.604;2023-06-14T22:23:52;99770.47;;;18.59;56.46
16821;BME280;8527;49.740;6.604;2023-06-14T22:28:50;99771.88;;;18.62;56.31
16821;BME280;8527;49.740;6.604;2023-06-14T22:33:51;99778.16;;;18.55;56.75
16821;BME280;8527;49.740;6.604;2023-06-14T22:38:50;99791.09;;;18.40;56.90
16821;BME280;8527;49.740;6.604;2023-06-14T22:43:49;99783.47;;;18.37;57.00
16821;BME280;8527;49.740;6.604;2023-06-14T22:48:47;99790.13;;;18.34;57.23
16821;BME280;8527;49.740;6.604;2023-06-14T22:53:49;99780.88;;;18.23;57.89
16821;BME280;8527;49.740;6.604;2023-06-14T22:58:54;99776.28;;;17.98;58.33
16821;BME280;8527;49.740;6.604;2023-06-14T23:03:59;99779.69;;;17.80;57.25
16821;BME280;8527;49.740;6.604;2023-06-14T23:09:09;99775.66;;;17.71;59.30
16821;BME280;8527;49.740;6.604;2023-06-14T23:14:08;99768.44;;;17.65;60.30
16821;BME280;8527;49.740;6.604;2023-06-14T23:19:06;99773.72;;;17.46;59.73
16821;BME280;8527;49.740;6.604;2023-06-14T23:24:11;99776.31;;;17.60;59.52
16821;BME280;8527;49.740;6.604;2023-06-14T23:29:11;99777.22;;;17.40;58.49
16821;BME280;8527;49.740;6.604;2023-06-14T23:34:14;99774.59;;;17.26;60.12
16821;BME280;8527;49.740;6.604;2023-06-14T23:39:19;99776.50;;;17.12;61.84
16821;BME280;8527;49.740;6.604;2023-06-14T23:44:30;99778.53;;;17.17;60.87
16821;BME280;8527;49.740;6.604;2023-06-14T23:49:32;99780.22;;;17.05;59.72
16821;BME280;8527;49.740;6.604;2023-06-14T23:54:33;99780.50;;;16.69;61.78
16821;BME280;8527;49.740;6.604;2023-06-14T23:59:37;99776.78;;;16.70;61.62
